sensor_id;sensor_type;location;lat;lon;timestamp;P1;durP1;ratioP1;P2;durP2;ratioP2
28523;SDS011;15734;50.904;6.922;2023-10-13T00:01:07;20.85;;;9.85;;
28523;SDS011;15734;50.904;6.922;2023-10-13T00:03:36;26.23;;;9.68;;
28523;SDS011;15734;50.904;6.922;2023-10-13T00:06:02;18.45;;;10.30;;
28523;SDS011;15734;50.904;6.922;2023-10-13T00:08:31;15.05;;;8.80;;
28523;SDS011;15734;50.904;6.922;2023-10-13T00:10:57;18.05;;;10.27;;
28523;SDS011;15734;50.904;6.922;2023-10-13T00:13:25;24.40;;;10.73;;
28523;SDS011;15734;50.904;6.922;2023-10-13T00:15:52;17.83;;;10.05;;
28523;SDS011;15734;50.904;6.922;2023-10-13T00:18:23;16.80;;;9.27;;
28523;SDS011;15734;50.904;6.922;2023-10-13T00:20:52;24.48;;;10.80;;
28523;SDS011;15734;50.904;6.922;2023-10-13T00:23:21;14.23;;;9.48;;
28523;SDS011;15734;50.904;6.922;2023-10-13T00:25:50;17.02;;;10.05;;
28523;SDS011;15734;50.904;6.922;2023-10-13T00:28:22;25.20;;;10.20;;
28523;SDS011;15734;50.904;6.922;2023-10-13T00:30:50;16.15;;;9.65;;
28523;SDS011;15734;50.904;6.922;2023-10-13T00:33:18;15.70;;;10.48;;
28523;SDS011;15734;50.904;6.922;2023-10-13T00:35:46;17.15;;;9.75;;
28523;SDS011;15734;50.904;6.922;2023-10-13T00:38:12;17.90;;;9.55;;
28523;SDS011;15734;50.904;6.922;2023-10-13T00:40:41;17.33;;;10.15;;
28523;SDS011;15734;50.904;6.922;2023-10-13T00:43:08;16.00;;;9.35;;
28523;SDS011;15734;50.904;6.922;2023-10-13T00:45:43;18.00;;;9.93;;
28523;SDS011;15734;50.904;6.922;2023-10-13T00:48:38;19.23;;;9.40;;
28523;SDS011;15734;50.904;6.922;2023-10-13T00:51:11;21.80;;;10.15;;
28523;SDS011;15734;50.904;6.922;2023-10-13T00:53:47;17.40;;;10.80;;
28523;SDS011;15734;50.904;6.922;2023-10-13T00:56:14;20.75;;;10.63;;
28523;SDS011;15734;50.904;6.922;2023-10-13T00:58:52;27.75;;;11.05;;
28523;SDS011;15734;50.904;6.922;2023-10-13T01:01:19;20.83;;;9.95;;
28523;SDS011;15734;50.904;6.922;2023-10-13T01:03:53;25.17;;;11.18;;
28523;SDS011;15734;50.904;6.922;2023-10-13T01:06:27;26.73;;;11.47;;
28523;SDS011;15734;50.904;6.922;2023-10-13T01:09:26;18.77;;;10.10;;
28523;SDS011;15734;50.904;6.922;2023-10-13T01:11:50;16.10;;;10.70;;
28523;SDS011;15734;50.904;6.922;2023-10-13T01:14:19;25.23;;;10.48;;
28523;SDS011;15734;50.904;6.922;2023-10-13T01:16:48;20.23;;;10.23;;
28523;SDS011;15734;50.904;6.922;2023-10-13T01:19:18;21.88;;;10.48;;
28523;SDS011;15734;50.904;6.922;2023-10-13T01:21:49;17.90;;;10.05;;
28523;SDS011;15734;50.904;6.922;2023-10-13T01:24:19;26.50;;;10.82;;
28523;SDS011;15734;50.904;6.922;2023-10-13T01:26:49;21.70;;;10.98;;
28523;SDS011;15734;50.904;6.922;2023-10-13T01:29:16;16.80;;;10.38;;
28523;SDS011;15734;50.904;6.922;2023-10-13T01:31:44;18.75;;;10.68;;
28523;SDS011;15734;50.904;6.922;2023-10-13T01:34:14;20.48;;;10.90;;
28523;SDS011;15734;50.904;6.922;2023-10-13T01:36:47;21.67;;;11.23;;
28523;SDS011;15734;50.904;6.922;2023-10-13T01:39:19;28.70;;;12.40;;
28523;SDS011;15734;50.904;6.922;2023-10-13T01:41:46;23.70;;;11.13;;
28523;SDS011;15734;50.904;6.922;2023-10-13T01:44:18;19.65;;;11.77;;
28523;SDS011;15734;50.904;6.922;2023-10-13T01:46:45;20.50;;;11.73;;
28523;SDS011;15734;50.904;6.922;2023-10-13T01:49:12;21.67;;;12.23;;
28523;SDS011;15734;50.904;6.922;2023-10-13T01:51:40;23.58;;;11.90;;
28523;SDS011;15734;50.904;6.922;2023-10-13T01:54:06;25.13;;;11.85;;
28523;SDS011;15734;50.904;6.922;2023-10-13T01:56:36;19.05;;;11.85;;
28523;SDS011;15734;50.904;6.922;2023-10-13T01:59:07;25.80;;;12.23;;
28523;SDS011;15734;50.904;6.922;2023-10-13T02:01:34;25.58;;;12.45;;
28523;SDS011;15734;50.904;6.922;2023-10-13T02:04:00;26.98;;;13.68;;
28523;SDS011;15734;50.904;6.922;2023-10-13T02:06:30;22.10;;;13.52;;
28523;SDS011;15734;50.904;6.922;2023-10-13T02:09:00;24.52;;;12.70;;
28523;SDS011;15734;50.904;6.922;2023-10-13T02:11:40;30.25;;;13.77;;
28523;SDS011;15734;50.904;6.922;2023-10-13T02:14:08;25.88;;;12.27;;
28523;SDS011;15734;50.904;6.922;2023-10-13T02:16:36;25.45;;;13.50;;
28523;SDS011;15734;50.904;6.922;2023-10-13T02:19:02;26.30;;;13.45;;
28523;SDS011;15734;50.904;6.922;2023-10-13T02:21:33;25.92;;;12.35;;
28523;SDS011;15734;50.904;6.922;2023-10-13T02:24:07;24.83;;;13.02;;
28523;SDS011;15734;50.904;6.922;2023-10-13T02:26:42;27.67;;;14.77;;
28523;SDS011;15734;50.904;6.922;2023-10-13T02:29:09;25.83;;;14.63;;
28523;SDS011;15734;50.904;6.922;2023-10-13T02:31:38;30.17;;;14.02;;
28523;SDS011;15734;50.904;6.922;2023-10-13T02:34:05;24.90;;;13.73;;
28523;SDS011;15734;50.904;6.922;2023-10-13T02:36:34;25.33;;;14.55;;
28523;SDS011;15734;50.904;6.922;2023-10-13T02:39:12;30.92;;;14.18;;
28523;SDS011;15734;50.904;6.922;2023-10-13T02:41:38;22.30;;;12.65;;
28523;SDS011;15734;50.904;6.922;2023-10-13T02:44:06;27.50;;;13.85;;
28523;SDS011;15734;50.904;6.922;2023-10-13T02:46:33;24.33;;;13.73;;
28523;SDS011;15734;50.904;6.922;2023-10-13T02:49:05;21.17;;;11.57;;
28523;SDS011;15734;50.904;6.922;2023-10-13T02:51:39;27.50;;;13.40;;
28523;SDS011;15734;50.904;6.922;2023-10-13T02:54:08;30.75;;;14.55;;
28523;SDS011;15734;50.904;6.922;2023-10-13T02:56:43;19.67;;;11.70;;
28523;SDS011;15734;50.904;6.922;2023-10-13T02:59:22;26.85;;;13.93;;
28523;SDS011;15734;50.904;6.922;2023-10-13T03:01:59;21.00;;;13.80;;
28523;SDS011;15734;50.904;6.922;2023-10-13T03:04:31;26.23;;;14.80;;
28523;SDS011;15734;50.904;6.922;2023-10-13T03:06:57;24.02;;;13.65;;
28523;SDS011;15734;50.904;6.922;2023-10-13T03:09:24;25.30;;;13.48;;
28523;SDS011;15734;50.904;6.922;2023-10-13T03:11:50;26.35;;;15.35;;
28523;SDS011;15734;50.904;6.922;2023-10-13T03:14:20;26.17;;;13.75;;
28523;SDS011;15734;50.904;6.922;2023-10-13T03:16:52;24.08;;;14.13;;
28523;SDS011;15734;50.904;6.922;2023-10-13T03:19:18;22.75;;;14.35;;
28523;SDS011;15734;50.904;6.922;2023-10-13T03:21:44;23.73;;;13.32;;
28523;SDS011;15734;50.904;6.922;2023-10-13T03:24:19;20.83;;;12.63;;
28523;SDS011;15734;50.904;6.922;2023-10-13T03:26:58;28.23;;;13.63;;
28523;SDS011;15734;50.904;6.922;2023-10-13T03:29:34;25.73;;;12.80;;
28523;SDS011;15734;50.904;6.922;2023-10-13T03:32:10;24.33;;;13.40;;
28523;SDS011;15734;50.904;6.922;2023-10-13T03:34:37;25.23;;;13.23;;
28523;SDS011;15734;50.904;6.922;2023-10-13T03:37:14;23.85;;;12.90;;
28523;SDS011;15734;50.904;6.922;2023-10-13T03:40:00;21.52;;;14.00;;
28523;SDS011;15734;50.904;6.922;2023-10-13T03:42:54;21.13;;;13.60;;
28523;SDS011;15734;50.904;6.922;2023-10-13T03:45:29;22.83;;;13.40;;
28523;SDS011;15734;50.904;6.922;2023-10-13T03:48:03;20.58;;;12.65;;
28523;SDS011;15734;50.904;6.922;2023-10-13T03:50:34;20.15;;;11.85;;
28523;SDS011;15734;50.904;6.922;2023-10-13T03:53:01;17.70;;;11.68;;
28523;SDS011;15734;50.904;6.922;2023-10-13T03:55:27;24.05;;;12.95;;
28523;SDS011;15734;50.904;6.922;2023-10-13T03:57:54;20.92;;;11.55;;
28523;SDS011;15734;50.904;6.922;2023-10-13T04:00:22;19.25;;;12.48;;
28523;SDS011;15734;50.904;6.922;2023-10-13T04:02:52;25.85;;;13.65;;
28523;SDS011;15734;50.904;6.922;2023-10-13T04:05:33;22.50;;;13.15;;
28523;SDS011;15734;50.904;6.922;2023-10-13T04:08:05;23.65;;;14.10;;
28523;SDS011;15734;50.904;6.922;2023-10-13T04:10:51;26.92;;;13.07;;
28523;SDS011;15734;50.904;6.922;2023-10-13T04:13:17;24.48;;;14.13;;
28523;SDS011;15734;50.904;6.922;2023-10-13T04:18:48;24.38;;;14.32;;
28523;SDS011;15734;50.904;6.922;2023-10-13T04:21:21;25.85;;;13.52;;
28523;SDS011;15734;50.904;6.922;2023-10-13T04:24:11;28.42;;;12.93;;
28523;SDS011;15734;50.904;6.922;2023-10-13T04:26:43;27.77;;;14.73;;
28523;SDS011;15734;50.904;6.922;2023-10-13T04:29:44;35.58;;;15.48;;
28523;SDS011;15734;50.904;6.922;2023-10-13T04:32:30;34.72;;;15.05;;
28523;SDS011;15734;50.904;6.922;2023-10-13T04:35:03;25.67;;;13.85;;
28523;SDS011;15734;50.904;6.922;2023-10-13T04:37:39;31.75;;;14.90;;
28523;SDS011;15734;50.904;6.922;2023-10-13T04:40:40;32.45;;;15.40;;
28523;SDS011;15734;50.904;6.922;2023-10-13T04:43:23;26.08;;;15.40;;
28523;SDS011;15734;50.904;6.922;2023-10-13T04:45:59;27.75;;;14.95;;
28523;SDS011;15734;50.904;6.922;2023-10-13T04:48:39;28.52;;;15.35;;
28523;SDS011;15734;50.904;6.922;2023-10-13T04:51:05;29.70;;;15.13;;
28523;SDS011;15734;50.904;6.922;2023-10-13T04:53:59;29.27;;;14.25;;
28523;SDS011;15734;50.904;6.922;2023-10-13T04:56:25;29.20;;;14.23;;
28523;SDS011;15734;50.904;6.922;2023-10-13T04:59:06;28.35;;;14.63;;
28523;SDS011;15734;50.904;6.922;2023-10-13T05:02:00;19.58;;;13.20;;
28523;SDS011;15734;50.904;6.922;2023-10-13T05:04:45;21.42;;;14.52;;
28523;SDS011;15734;50.904;6.922;2023-10-13T05:07:42;29.95;;;13.30;;
28523;SDS011;15734;50.904;6.922;2023-10-13T05:10:27;23.05;;;14.15;;
28523;SDS011;15734;50.904;6.922;2023-10-13T05:13:11;22.10;;;13.90;;
28523;SDS011;15734;50.904;6.922;2023-10-13T05:15:55;26.35;;;12.88;;
28523;SDS011;15734;50.904;6.922;2023-10-13T05:18:39;25.88;;;14.07;;
28523;SDS011;15734;50.904;6.922;2023-10-13T05:21:23;26.85;;;12.77;;
28523;SDS011;15734;50.904;6.922;2023-10-13T05:24:07;31.05;;;14.80;;
28523;SDS011;15734;50.904;6.922;2023-10-13T05:26:52;30.55;;;12.73;;
28523;SDS011;15734;50.904;6.922;2023-10-13T05:29:44;20.40;;;12.63;;
28523;SDS011;15734;50.904;6.922;2023-10-13T05:32:29;25.25;;;13.27;;
28523;SDS011;15734;50.904;6.922;2023-10-13T05:35:14;26.65;;;13.25;;
28523;SDS011;15734;50.904;6.922;2023-10-13T05:40:58;24.08;;;13.00;;
28523;SDS011;15734;50.904;6.922;2023-10-13T05:43:44;31.55;;;13.55;;
28523;SDS011;15734;50.904;6.922;2023-10-13T05:46:28;24.70;;;13.68;;
28523;SDS011;15734;50.904;6.922;2023-10-13T05:49:14;28.63;;;14.63;;
28523;SDS011;15734;50.904;6.922;2023-10-13T05:51:40;27.92;;;14.18;;
28523;SDS011;15734;50.904;6.922;2023-10-13T05:54:13;24.90;;;13.00;;
28523;SDS011;15734;50.904;6.922;2023-10-13T05:56:42;26.48;;;14.02;;
28523;SDS011;15734;50.904;6.922;2023-10-13T05:59:32;22.73;;;12.50;;
28523;SDS011;15734;50.904;6.922;2023-10-13T06:02:19;22.35;;;13.98;;
28523;SDS011;15734;50.904;6.922;2023-10-13T06:05:08;25.00;;;13.52;;
28523;SDS011;15734;50.904;6.922;2023-10-13T06:07:54;24.30;;;13.82;;
28523;SDS011;15734;50.904;6.922;2023-10-13T06:10:39;27.65;;;13.32;;
28523;SDS011;15734;50.904;6.922;2023-10-13T06:16:19;19.10;;;11.10;;
28523;SDS011;15734;50.904;6.922;2023-10-13T06:19:03;30.30;;;13.40;;
28523;SDS011;15734;50.904;6.922;2023-10-13T06:21:47;34.10;;;13.95;;
28523;SDS011;15734;50.904;6.922;2023-10-13T06:24:31;27.40;;;12.93;;
28523;SDS011;15734;50.904;6.922;2023-10-13T06:27:15;21.13;;;13.07;;
28523;SDS011;15734;50.904;6.922;2023-10-13T06:30:00;28.38;;;13.43;;
28523;SDS011;15734;50.904;6.922;2023-10-13T06:32:26;28.27;;;12.23;;
28523;SDS011;15734;50.904;6.922;2023-10-13T06:34:55;24.92;;;12.68;;
28523;SDS011;15734;50.904;6.922;2023-10-13T06:37:30;21.33;;;13.27;;
28523;SDS011;15734;50.904;6.922;2023-10-13T06:39:57;22.70;;;11.95;;
28523;SDS011;15734;50.904;6.922;2023-10-13T06:44:59;23.17;;;12.05;;
28523;SDS011;15734;50.904;6.922;2023-10-13T06:47:33;24.55;;;12.13;;
28523;SDS011;15734;50.904;6.922;2023-10-13T06:50:11;26.13;;;13.27;;
28523;SDS011;15734;50.904;6.922;2023-10-13T06:52:43;20.88;;;11.73;;
28523;SDS011;15734;50.904;6.922;2023-10-13T06:55:09;16.73;;;9.98;;
28523;SDS011;15734;50.904;6.922;2023-10-13T06:57:41;21.52;;;11.52;;
28523;SDS011;15734;50.904;6.922;2023-10-13T07:00:09;21.50;;;12.25;;
28523;SDS011;15734;50.904;6.922;2023-10-13T07:02:44;23.10;;;11.48;;
28523;SDS011;15734;50.904;6.922;2023-10-13T07:05:11;27.25;;;11.65;;
28523;SDS011;15734;50.904;6.922;2023-10-13T07:07:39;23.45;;;12.05;;
28523;SDS011;15734;50.904;6.922;2023-10-13T07:10:07;20.10;;;11.15;;
28523;SDS011;15734;50.904;6.922;2023-10-13T07:12:34;26.02;;;11.65;;
28523;SDS011;15734;50.904;6.922;2023-10-13T07:15:00;30.25;;;12.88;;
28523;SDS011;15734;50.904;6.922;2023-10-13T07:17:43;23.37;;;10.77;;
28523;SDS011;15734;50.904;6.922;2023-10-13T07:20:10;21.77;;;10.55;;
28523;SDS011;15734;50.904;6.922;2023-10-13T07:22:49;22.67;;;10.23;;
28523;SDS011;15734;50.904;6.922;2023-10-13T07:25:31;29.33;;;10.70;;
28523;SDS011;15734;50.904;6.922;2023-10-13T07:28:04;29.60;;;11.93;;
28523;SDS011;15734;50.904;6.922;2023-10-13T07:30:33;25.83;;;10.88;;
28523;SDS011;15734;50.904;6.922;2023-10-13T07:33:07;24.75;;;11.65;;
28523;SDS011;15734;50.904;6.922;2023-10-13T07:35:35;26.98;;;10.85;;
28523;SDS011;15734;50.904;6.922;2023-10-13T07:38:02;21.50;;;10.45;;
28523;SDS011;15734;50.904;6.922;2023-10-13T07:40:32;29.15;;;10.60;;
28523;SDS011;15734;50.904;6.922;2023-10-13T07:43:00;24.50;;;10.15;;
28523;SDS011;15734;50.904;6.922;2023-10-13T07:45:28;36.90;;;11.35;;
28523;SDS011;15734;50.904;6.922;2023-10-13T07:48:04;26.00;;;10.32;;
28523;SDS011;15734;50.904;6.922;2023-10-13T07:53:30;30.55;;;12.45;;
28523;SDS011;15734;50.904;6.922;2023-10-13T07:56:05;24.65;;;10.82;;
28523;SDS011;15734;50.904;6.922;2023-10-13T07:58:33;32.75;;;10.85;;
28523;SDS011;15734;50.904;6.922;2023-10-13T08:01:00;19.85;;;10.52;;
28523;SDS011;15734;50.904;6.922;2023-10-13T08:03:34;33.33;;;11.55;;
28523;SDS011;15734;50.904;6.922;2023-10-13T08:06:10;23.63;;;9.68;;
28523;SDS011;15734;50.904;6.922;2023-10-13T08:08:40;27.67;;;10.30;;
28523;SDS011;15734;50.904;6.922;2023-10-13T08:11:11;24.00;;;10.13;;
28523;SDS011;15734;50.904;6.922;2023-10-13T08:16:22;28.40;;;8.82;;
28523;SDS011;15734;50.904;6.922;2023-10-13T08:18:51;23.83;;;10.20;;
28523;SDS011;15734;50.904;6.922;2023-10-13T08:21:18;18.15;;;9.77;;
28523;SDS011;15734;50.904;6.922;2023-10-13T08:23:50;28.55;;;9.90;;
28523;SDS011;15734;50.904;6.922;2023-10-13T08:26:19;21.80;;;9.27;;
28523;SDS011;15734;50.904;6.922;2023-10-13T08:28:55;21.17;;;9.15;;
28523;SDS011;15734;50.904;6.922;2023-10-13T08:31:44;20.77;;;9.13;;
28523;SDS011;15734;50.904;6.922;2023-10-13T08:34:42;21.15;;;8.68;;
28523;SDS011;15734;50.904;6.922;2023-10-13T08:37:13;23.83;;;8.43;;
28523;SDS011;15734;50.904;6.922;2023-10-13T08:39:47;27.33;;;8.60;;
28523;SDS011;15734;50.904;6.922;2023-10-13T08:47:48;26.60;;;8.02;;
28523;SDS011;15734;50.904;6.922;2023-10-13T08:50:34;21.45;;;7.18;;
28523;SDS011;15734;50.904;6.922;2023-10-13T08:53:26;18.42;;;7.97;;
28523;SDS011;15734;50.904;6.922;2023-10-13T08:58:45;20.35;;;6.68;;
28523;SDS011;15734;50.904;6.922;2023-10-13T09:01:18;23.85;;;8.18;;
28523;SDS011;15734;50.904;6.922;2023-10-13T09:04:10;15.48;;;6.07;;
28523;SDS011;15734;50.904;6.922;2023-10-13T09:06:43;27.33;;;6.55;;
28523;SDS011;15734;50.904;6.922;2023-10-13T09:09:12;13.95;;;5.97;;
28523;SDS011;15734;50.904;6.922;2023-10-13T09:11:51;23.00;;;7.72;;
28523;SDS011;15734;50.904;6.922;2023-10-13T09:14:37;22.95;;;7.05;;
28523;SDS011;15734;50.904;6.922;2023-10-13T09:17:08;20.85;;;7.15;;
28523;SDS011;15734;50.904;6.922;2023-10-13T09:19:44;17.30;;;6.28;;
28523;SDS011;15734;50.904;6.922;2023-10-13T09:22:19;16.75;;;6.65;;
28523;SDS011;15734;50.904;6.922;2023-10-13T09:25:01;21.30;;;7.35;;
28523;SDS011;15734;50.904;6.922;2023-10-13T09:27:28;20.45;;;7.30;;
28523;SDS011;15734;50.904;6.922;2023-10-13T09:30:03;18.15;;;7.97;;
28523;SDS011;15734;50.904;6.922;2023-10-13T09:32:43;16.92;;;7.47;;
28523;SDS011;15734;50.904;6.922;2023-10-13T09:35:20;19.92;;;8.30;;
28523;SDS011;15734;50.904;6.922;2023-10-13T09:37:52;15.90;;;6.95;;
28523;SDS011;15734;50.904;6.922;2023-10-13T09:40:24;20.10;;;7.68;;
28523;SDS011;15734;50.904;6.922;2023-10-13T09:42:51;17.38;;;7.25;;
28523;SDS011;15734;50.904;6.922;2023-10-13T09:45:17;17.50;;;7.65;;
28523;SDS011;15734;50.904;6.922;2023-10-13T09:47:44;20.98;;;7.38;;
28523;SDS011;15734;50.904;6.922;2023-10-13T09:52:49;19.13;;;7.38;;
28523;SDS011;15734;50.904;6.922;2023-10-13T09:55:21;18.63;;;7.05;;
28523;SDS011;15734;50.904;6.922;2023-10-13T09:57:57;16.40;;;7.97;;
28523;SDS011;15734;50.904;6.922;2023-10-13T10:00:35;17.27;;;7.25;;
28523;SDS011;15734;50.904;6.922;2023-10-13T10:03:06;15.93;;;8.02;;
28523;SDS011;15734;50.904;6.922;2023-10-13T10:05:55;20.13;;;7.60;;
28523;SDS011;15734;50.904;6.922;2023-10-13T10:08:31;21.23;;;7.93;;
28523;SDS011;15734;50.904;6.922;2023-10-13T10:14:06;13.20;;;6.65;;
28523;SDS011;15734;50.904;6.922;2023-10-13T10:16:39;22.83;;;7.93;;
28523;SDS011;15734;50.904;6.922;2023-10-13T10:19:25;24.70;;;7.90;;
28523;SDS011;15734;50.904;6.922;2023-10-13T10:22:04;21.73;;;8.00;;
28523;SDS011;15734;50.904;6.922;2023-10-13T10:24:43;20.10;;;7.28;;
28523;SDS011;15734;50.904;6.922;2023-10-13T10:27:12;27.08;;;7.88;;
28523;SDS011;15734;50.904;6.922;2023-10-13T10:29:52;23.90;;;7.38;;
28523;SDS011;15734;50.904;6.922;2023-10-13T10:32:18;20.35;;;8.50;;
28523;SDS011;15734;50.904;6.922;2023-10-13T10:34:44;17.10;;;7.65;;
28523;SDS011;15734;50.904;6.922;2023-10-13T10:37:10;22.48;;;8.43;;
28523;SDS011;15734;50.904;6.922;2023-10-13T10:39:37;21.80;;;8.48;;
28523;SDS011;15734;50.904;6.922;2023-10-13T10:42:13;16.85;;;7.68;;
28523;SDS011;15734;50.904;6.922;2023-10-13T10:44:51;20.00;;;7.80;;
28523;SDS011;15734;50.904;6.922;2023-10-13T10:47:30;19.73;;;7.22;;
28523;SDS011;15734;50.904;6.922;2023-10-13T10:49:57;18.65;;;8.25;;
28523;SDS011;15734;50.904;6.922;2023-10-13T10:52:25;15.73;;;7.65;;
28523;SDS011;15734;50.904;6.922;2023-10-13T10:54:58;21.58;;;8.30;;
28523;SDS011;15734;50.904;6.922;2023-10-13T10:57:24;24.00;;;8.98;;
28523;SDS011;15734;50.904;6.922;2023-10-13T10:59:53;21.00;;;8.48;;
28523;SDS011;15734;50.904;6.922;2023-10-13T11:02:34;19.25;;;9.05;;
28523;SDS011;15734;50.904;6.922;2023-10-13T11:04:59;22.25;;;7.78;;
28523;SDS011;15734;50.904;6.922;2023-10-13T11:07:26;18.52;;;7.70;;
28523;SDS011;15734;50.904;6.922;2023-10-13T11:09:53;18.83;;;7.65;;
28523;SDS011;15734;50.904;6.922;2023-10-13T11:12:32;17.60;;;7.88;;
28523;SDS011;15734;50.904;6.922;2023-10-13T11:15:08;13.88;;;6.88;;
28523;SDS011;15734;50.904;6.922;2023-10-13T11:17:58;19.27;;;7.38;;
28523;SDS011;15734;50.904;6.922;2023-10-13T11:20:24;17.20;;;6.75;;
28523;SDS011;15734;50.904;6.922;2023-10-13T11:22:58;17.73;;;6.97;;
28523;SDS011;15734;50.904;6.922;2023-10-13T11:25:25;15.18;;;7.40;;
28523;SDS011;15734;50.904;6.922;2023-10-13T11:27:55;14.27;;;6.22;;
28523;SDS011;15734;50.904;6.922;2023-10-13T11:30:23;18.02;;;6.47;;
28523;SDS011;15734;50.904;6.922;2023-10-13T11:33:07;24.90;;;7.30;;
28523;SDS011;15734;50.904;6.922;2023-10-13T11:35:34;19.65;;;6.93;;
28523;SDS011;15734;50.904;6.922;2023-10-13T11:38:35;20.50;;;7.07;;
28523;SDS011;15734;50.904;6.922;2023-10-13T11:41:13;18.30;;;6.75;;
28523;SDS011;15734;50.904;6.922;2023-10-13T11:43:49;16.80;;;7.45;;
28523;SDS011;15734;50.904;6.922;2023-10-13T11:46:17;14.63;;;6.70;;
28523;SDS011;15734;50.904;6.922;2023-10-13T11:51:53;18.08;;;6.45;;
28523;SDS011;15734;50.904;6.922;2023-10-13T11:54:41;22.02;;;7.10;;
28523;SDS011;15734;50.904;6.922;2023-10-13T11:57:07;17.27;;;5.78;;
28523;SDS011;15734;50.904;6.922;2023-10-13T11:59:33;19.60;;;6.90;;
28523;SDS011;15734;50.904;6.922;2023-10-13T12:02:05;18.17;;;6.93;;
28523;SDS011;15734;50.904;6.922;2023-10-13T12:04:50;13.07;;;6.65;;
28523;SDS011;15734;50.904;6.922;2023-10-13T12:07:24;17.30;;;6.68;;
28523;SDS011;15734;50.904;6.922;2023-10-13T12:12:41;20.02;;;6.25;;
28523;SDS011;15734;50.904;6.922;2023-10-13T12:15:09;19.73;;;6.05;;
28523;SDS011;15734;50.904;6.922;2023-10-13T12:17:39;12.90;;;6.25;;
28523;SDS011;15734;50.904;6.922;2023-10-13T12:20:09;17.48;;;6.82;;
28523;SDS011;15734;50.904;6.922;2023-10-13T12:22:39;15.32;;;6.47;;
28523;SDS011;15734;50.904;6.922;2023-10-13T12:25:07;15.20;;;6.25;;
28523;SDS011;15734;50.904;6.922;2023-10-13T12:27:49;18.83;;;7.13;;
28523;SDS011;15734;50.904;6.922;2023-10-13T12:30:21;19.85;;;7.88;;
28523;SDS011;15734;50.904;6.922;2023-10-13T12:33:13;21.38;;;6.30;;
28523;SDS011;15734;50.904;6.922;2023-10-13T12:35:41;14.18;;;6.07;;
28523;SDS011;15734;50.904;6.922;2023-10-13T12:38:28;18.05;;;6.00;;
28523;SDS011;15734;50.904;6.922;2023-10-13T12:41:16;16.42;;;6.38;;
28523;SDS011;15734;50.904;6.922;2023-10-13T12:44:01;12.95;;;6.38;;
28523;SDS011;15734;50.904;6.922;2023-10-13T12:49:31;21.48;;;7.05;;
28523;SDS011;15734;50.904;6.922;2023-10-13T12:52:14;20.65;;;6.45;;
28523;SDS011;15734;50.904;6.922;2023-10-13T12:54:50;21.63;;;6.82;;
28523;SDS011;15734;50.904;6.922;2023-10-13T12:57:22;18.80;;;6.30;;
28523;SDS011;15734;50.904;6.922;2023-10-13T12:59:51;16.35;;;5.78;;
28523;SDS011;15734;50.904;6.922;2023-10-13T13:02:20;17.58;;;6.28;;
28523;SDS011;15734;50.904;6.922;2023-10-13T13:04:46;21.77;;;6.18;;
28523;SDS011;15734;50.904;6.922;2023-10-13T13:07:16;18.35;;;5.63;;
28523;SDS011;15734;50.904;6.922;2023-10-13T13:09:41;17.95;;;6.25;;
28523;SDS011;15734;50.904;6.922;2023-10-13T13:12:07;22.17;;;6.47;;
28523;SDS011;15734;50.904;6.922;2023-10-13T13:14:37;17.27;;;5.57;;
28523;SDS011;15734;50.904;6.922;2023-10-13T13:17:05;12.20;;;5.78;;
28523;SDS011;15734;50.904;6.922;2023-10-13T13:19:34;22.27;;;5.68;;
28523;SDS011;15734;50.904;6.922;2023-10-13T13:22:04;23.75;;;5.97;;
28523;SDS011;15734;50.904;6.922;2023-10-13T13:24:37;24.63;;;6.63;;
28523;SDS011;15734;50.904;6.922;2023-10-13T13:27:08;23.27;;;6.20;;
28523;SDS011;15734;50.904;6.922;2023-10-13T13:32:11;17.15;;;6.00;;
28523;SDS011;15734;50.904;6.922;2023-10-13T13:35:03;22.35;;;6.00;;
28523;SDS011;15734;50.904;6.922;2023-10-13T13:37:30;21.20;;;6.18;;
28523;SDS011;15734;50.904;6.922;2023-10-13T13:39:56;21.45;;;6.18;;
28523;SDS011;15734;50.904;6.922;2023-10-13T13:42:31;20.55;;;6.75;;
28523;SDS011;15734;50.904;6.922;2023-10-13T13:45:01;16.63;;;6.07;;
28523;SDS011;15734;50.904;6.922;2023-10-13T13:47:27;18.08;;;7.38;;
28523;SDS011;15734;50.904;6.922;2023-10-13T13:49:53;24.17;;;6.18;;
28523;SDS011;15734;50.904;6.922;2023-10-13T13:52:20;21.50;;;5.97;;
28523;SDS011;15734;50.904;6.922;2023-10-13T13:54:58;18.27;;;6.55;;
28523;SDS011;15734;50.904;6.922;2023-10-13T13:57:27;20.15;;;6.22;;
28523;SDS011;15734;50.904;6.922;2023-10-13T13:59:55;20.83;;;6.30;;
28523;SDS011;15734;50.904;6.922;2023-10-13T14:02:22;23.35;;;7.43;;
28523;SDS011;15734;50.904;6.922;2023-10-13T14:04:48;19.05;;;6.68;;
28523;SDS011;15734;50.904;6.922;2023-10-13T14:07:20;20.42;;;5.72;;
28523;SDS011;15734;50.904;6.922;2023-10-13T14:09:49;22.25;;;6.90;;
28523;SDS011;15734;50.904;6.922;2023-10-13T14:12:18;19.73;;;5.93;;
28523;SDS011;15734;50.904;6.922;2023-10-13T14:15:06;20.30;;;5.55;;
28523;SDS011;15734;50.904;6.922;2023-10-13T14:17:44;19.33;;;5.93;;
28523;SDS011;15734;50.904;6.922;2023-10-13T14:20:11;16.80;;;6.10;;
28523;SDS011;15734;50.904;6.922;2023-10-13T14:22:46;18.58;;;5.90;;
28523;SDS011;15734;50.904;6.922;2023-10-13T14:25:14;18.45;;;5.40;;
28523;SDS011;15734;50.904;6.922;2023-10-13T14:27:43;23.02;;;5.78;;
28523;SDS011;15734;50.904;6.922;2023-10-13T14:30:08;13.80;;;5.40;;
28523;SDS011;15734;50.904;6.922;2023-10-13T14:32:34;18.40;;;6.65;;
28523;SDS011;15734;50.904;6.922;2023-10-13T14:35:05;19.58;;;5.57;;
28523;SDS011;15734;50.904;6.922;2023-10-13T14:40:05;21.02;;;6.70;;
28523;SDS011;15734;50.904;6.922;2023-10-13T14:42:36;18.95;;;5.43;;
28523;SDS011;15734;50.904;6.922;2023-10-13T14:45:05;23.80;;;5.97;;
28523;SDS011;15734;50.904;6.922;2023-10-13T14:47:37;16.85;;;5.63;;
28523;SDS011;15734;50.904;6.922;2023-10-13T14:50:04;14.23;;;5.28;;
28523;SDS011;15734;50.904;6.922;2023-10-13T14:52:30;21.00;;;6.07;;
28523;SDS011;15734;50.904;6.922;2023-10-13T14:54:57;17.65;;;5.75;;
28523;SDS011;15734;50.904;6.922;2023-10-13T14:57:22;20.95;;;6.32;;
28523;SDS011;15734;50.904;6.922;2023-10-13T14:59:52;15.45;;;6.65;;
28523;SDS011;15734;50.904;6.922;2023-10-13T15:02:18;16.15;;;5.15;;
28523;SDS011;15734;50.904;6.922;2023-10-13T15:04:44;17.25;;;5.38;;
28523;SDS011;15734;50.904;6.922;2023-10-13T15:07:13;19.92;;;6.00;;
28523;SDS011;15734;50.904;6.922;2023-10-13T15:09:40;17.95;;;6.28;;
28523;SDS011;15734;50.904;6.922;2023-10-13T15:12:07;20.77;;;5.80;;
28523;SDS011;15734;50.904;6.922;2023-10-13T15:14:39;16.90;;;4.30;;
28523;SDS011;15734;50.904;6.922;2023-10-13T15:17:08;17.83;;;4.93;;
28523;SDS011;15734;50.904;6.922;2023-10-13T15:19:34;16.70;;;5.57;;
28523;SDS011;15734;50.904;6.922;2023-10-13T15:22:08;21.88;;;5.63;;
28523;SDS011;15734;50.904;6.922;2023-10-13T15:24:41;12.70;;;4.55;;
28523;SDS011;15734;50.904;6.922;2023-10-13T15:27:22;11.80;;;5.18;;
28523;SDS011;15734;50.904;6.922;2023-10-13T15:29:48;19.23;;;5.32;;
28523;SDS011;15734;50.904;6.922;2023-10-13T15:32:15;17.05;;;5.35;;
28523;SDS011;15734;50.904;6.922;2023-10-13T15:35:00;17.13;;;5.18;;
28523;SDS011;15734;50.904;6.922;2023-10-13T15:37:25;14.77;;;5.45;;
28523;SDS011;15734;50.904;6.922;2023-10-13T15:39:52;17.00;;;5.40;;
28523;SDS011;15734;50.904;6.922;2023-10-13T15:42:17;12.88;;;4.88;;
28523;SDS011;15734;50.904;6.922;2023-10-13T15:44:46;20.77;;;5.85;;
28523;SDS011;15734;50.904;6.922;2023-10-13T15:47:11;15.52;;;4.90;;
28523;SDS011;15734;50.904;6.922;2023-10-13T15:49:37;14.85;;;5.80;;